PWSweather.com
Personal Weather Stations
Station Observations
KMAMEDFI2
Medfield, MA 02052

Medfield, MA 02052

Lat: 42.1900822, Lon: -71.3296889

Elevation: 138

Station Type: Rainwise WS MK-III

http://www.medfieldweather.com

High Low Average
Temperature 59.7°F15.4°C 17.7°F-7.9°C 40.8°F4.9°C
Dew Point 59.1°F15.1°C 16.0°F-8.9°C 38.9°F3.8°C
Winds 16.1 mph 25.9 kmh Calm Calm 5.0 mph SW8.0 kmh SW
Wind Gusts 17.3 mph27.8 kmh -- 5.0 mph8.0 kmh
Humidity 98% 74% 93%
Pressure 31.35 in1061.6 mb 30.15 in1021.0 mb -
Precipitation 0.79 in20.1 mm - -
Hour Temp Dew Point Humidity Winds Wind Gusts Pressure Precip Precip Rate Daily Precip Total
12:00 AM 55.9°F13.3°C 55.1°F12.8°C 97% 2.3 mph WSW3.7 kmh WSW 1.2 mph1.9 kmh 30.83 in1044.0 mb - 0.00 in0.0 mm 0.00 in0.0 mm
12:10 AM 56.4°F13.6°C 55.6°F13.1°C 97% 2.3 mph ENE3.7 kmh ENE 1.2 mph1.9 kmh 30.82 in1043.7 mb - 0.01 in0.3 mm 0.01 in0.3 mm
12:20 AM 56.6°F13.7°C 55.8°F13.2°C 97% 2.3 mph SSE3.7 kmh SSE 2.3 mph3.7 kmh 30.81 in1043.3 mb - 0.02 in0.5 mm 0.03 in0.8 mm
12:30 AM 57.1°F13.9°C 56.3°F13.5°C 97% 2.3 mph E3.7 kmh E 5.8 mph9.3 kmh 30.80 in1043.0 mb - 0.00 in0.0 mm 0.03 in0.8 mm
12:40 AM 57.9°F14.4°C 57.0°F13.9°C 97% 1.2 mph ESE1.9 kmh ESE 2.3 mph3.7 kmh 30.80 in1043.0 mb - 0.01 in0.3 mm 0.04 in1.0 mm
12:50 AM 57.4°F14.1°C 56.5°F13.6°C 97% 2.3 mph SE3.7 kmh SE 2.3 mph3.7 kmh 30.78 in1042.3 mb - 0.04 in1.0 mm 0.08 in2.0 mm
01:00 AM 57.2°F14.0°C 56.4°F13.6°C 97% 3.5 mph S5.6 kmh S 5.8 mph9.3 kmh 30.78 in1042.3 mb - 0.00 in0.0 mm 0.08 in2.0 mm
01:10 AM 58.0°F14.4°C 57.4°F14.1°C 98% 2.3 mph SE3.7 kmh SE 2.3 mph3.7 kmh 30.78 in1042.3 mb - 0.00 in0.0 mm 0.08 in2.0 mm
01:20 AM 57.7°F14.3°C 56.9°F13.8°C 97% 3.5 mph ENE5.6 kmh ENE 2.3 mph3.7 kmh 30.78 in1042.3 mb - 0.01 in0.3 mm 0.09 in2.3 mm
01:30 AM 57.7°F14.3°C 56.9°F13.8°C 97% 5.8 mph E9.3 kmh E 5.8 mph9.3 kmh 30.78 in1042.3 mb - 0.00 in0.0 mm 0.09 in2.3 mm
01:40 AM 57.7°F14.3°C 56.9°F13.8°C 97% 3.5 mph SE5.6 kmh SE 3.5 mph5.6 kmh 30.77 in1042.0 mb - 0.01 in0.3 mm 0.10 in2.5 mm
01:50 AM 57.7°F14.3°C 56.9°F13.8°C 97% 4.6 mph ESE7.4 kmh ESE 2.3 mph3.7 kmh 30.78 in1042.3 mb - 0.01 in0.3 mm 0.11 in2.8 mm
02:00 AM 57.3°F14.1°C 56.5°F13.6°C 97% 1.2 mph ESE1.9 kmh ESE 1.2 mph1.9 kmh 30.78 in1042.3 mb - 0.01 in0.3 mm 0.12 in3.0 mm
02:10 AM 56.9°F13.8°C 56.1°F13.4°C 97% 1.2 mph S1.9 kmh S 5.8 mph9.3 kmh 30.77 in1042.0 mb - 0.01 in0.3 mm 0.13 in3.3 mm
02:20 AM 57.2°F14.0°C 56.4°F13.6°C 97% 3.5 mph E5.6 kmh E 2.3 mph3.7 kmh 30.77 in1042.0 mb - 0.02 in0.5 mm 0.15 in3.8 mm
02:30 AM 57.4°F14.1°C 56.6°F13.7°C 97% 3.5 mph E5.6 kmh E 2.3 mph3.7 kmh 30.76 in1041.7 mb - 0.01 in0.3 mm 0.16 in4.1 mm
02:40 AM 57.7°F14.3°C 56.9°F13.8°C 97% 3.5 mph E5.6 kmh E 2.3 mph3.7 kmh 30.76 in1041.7 mb - 0.01 in0.3 mm 0.17 in4.3 mm
02:50 AM 58.1°F14.5°C 57.5°F14.2°C 98% 3.5 mph SW5.6 kmh SW 2.3 mph3.7 kmh 30.76 in1041.7 mb - 0.03 in0.8 mm 0.20 in5.1 mm
03:00 AM 58.7°F14.8°C 58.1°F14.5°C 98% 4.6 mph SE7.4 kmh SE 3.5 mph5.6 kmh 30.76 in1041.7 mb - 0.08 in2.0 mm 0.27 in6.9 mm
03:10 AM 58.6°F14.8°C 58.0°F14.4°C 98% 2.3 mph SE3.7 kmh SE 2.3 mph3.7 kmh 30.76 in1041.7 mb - 0.02 in0.5 mm 0.29 in7.4 mm
03:20 AM 58.9°F14.9°C 58.3°F14.6°C 98% 1.2 mph S1.9 kmh S 2.3 mph3.7 kmh 30.75 in1041.3 mb - 0.02 in0.5 mm 0.31 in7.9 mm
03:30 AM 59.6°F15.3°C 59.0°F15.0°C 98% 1.2 mph S1.9 kmh S 2.3 mph3.7 kmh 30.74 in1041.0 mb - 0.01 in0.3 mm 0.32 in8.1 mm
03:40 AM 59.7°F15.4°C 59.1°F15.1°C 98% 1.2 mph E1.9 kmh E 1.2 mph1.9 kmh 30.74 in1041.0 mb - 0.03 in0.8 mm 0.35 in8.9 mm
03:50 AM 59.7°F15.4°C 59.1°F15.1°C 98% 1.2 mph SE1.9 kmh SE 2.3 mph3.7 kmh 30.73 in1040.6 mb - 0.01 in0.3 mm 0.36 in9.1 mm
04:00 AM 59.6°F15.3°C 59.0°F15.0°C 98% 2.3 mph NE3.7 kmh NE 1.2 mph1.9 kmh 30.72 in1040.3 mb - 0.01 in0.3 mm 0.37 in9.4 mm
04:10 AM 58.9°F14.9°C 58.3°F14.6°C 98% 8.1 mph SSW13.0 kmh SSW 2.3 mph3.7 kmh 30.71 in1040.0 mb - 0.02 in0.5 mm 0.39 in9.9 mm
04:20 AM 57.9°F14.4°C 57.1°F13.9°C 97% 2.3 mph SSE3.7 kmh SSE 1.2 mph1.9 kmh 30.68 in1038.9 mb - 0.01 in0.3 mm 0.40 in10.2 mm
04:30 AM 57.4°F14.1°C 56.6°F13.7°C 97% 5.8 mph E9.3 kmh E 5.8 mph9.3 kmh 30.68 in1038.9 mb - 0.02 in0.5 mm 0.42 in10.7 mm
04:40 AM 57.4°F14.1°C 56.6°F13.7°C 97% 5.8 mph SSW9.3 kmh SSW 6.9 mph11.1 kmh 30.67 in1038.6 mb - 0.01 in0.3 mm 0.43 in10.9 mm
04:50 AM 57.3°F14.1°C 56.5°F13.6°C 97% 9.2 mph ESE14.8 kmh ESE 8.1 mph13.0 kmh 30.66 in1038.3 mb - 0.02 in0.5 mm 0.45 in11.4 mm
05:00 AM 57.4°F14.1°C 56.5°F13.6°C 97% 6.9 mph S11.1 kmh S 11.5 mph18.5 kmh 30.66 in1038.3 mb - 0.06 in1.5 mm 0.51 in13.0 mm
05:10 AM 57.4°F14.1°C 56.6°F13.7°C 97% 3.5 mph SE5.6 kmh SE 3.5 mph5.6 kmh 30.66 in1038.3 mb - 0.08 in2.0 mm 0.58 in14.7 mm
05:20 AM 57.5°F14.2°C 56.6°F13.7°C 97% 2.3 mph SSW3.7 kmh SSW 2.3 mph3.7 kmh 30.68 in1038.9 mb - 0.07 in1.8 mm 0.65 in16.5 mm
05:30 AM 57.5°F14.2°C 56.7°F13.7°C 97% 3.5 mph S5.6 kmh S 2.3 mph3.7 kmh 30.68 in1038.9 mb - 0.09 in2.3 mm 0.73 in18.5 mm
05:40 AM 57.1°F13.9°C 56.3°F13.5°C 97% 6.9 mph SE11.1 kmh SE 6.9 mph11.1 kmh 30.66 in1038.3 mb - 0.04 in1.0 mm 0.77 in19.6 mm
05:50 AM 56.9°F13.8°C 56.1°F13.4°C 97% 4.6 mph E7.4 kmh E 5.8 mph9.3 kmh 30.63 in1037.3 mb - 0.00 in0.0 mm 0.77 in19.6 mm
06:00 AM 56.4°F13.6°C 55.6°F13.1°C 97% 3.5 mph SE5.6 kmh SE 2.3 mph3.7 kmh 30.58 in1035.6 mb - 0.00 in0.0 mm 0.77 in19.6 mm
06:10 AM 56.7°F13.7°C 55.8°F13.2°C 97% 3.5 mph E5.6 kmh E 5.8 mph9.3 kmh 30.62 in1036.9 mb - 0.01 in0.3 mm 0.78 in19.8 mm
06:20 AM 57.2°F14.0°C 56.4°F13.6°C 97% 2.3 mph E3.7 kmh E 1.2 mph1.9 kmh 30.63 in1037.3 mb - 0.00 in0.0 mm 0.78 in19.8 mm
06:30 AM 56.9°F13.8°C 56.1°F13.4°C 97% 2.3 mph SSE3.7 kmh SSE 2.3 mph3.7 kmh 30.62 in1036.9 mb - 0.01 in0.3 mm 0.79 in20.1 mm
06:40 AM 57.2°F14.0°C 56.4°F13.6°C 97% 9.2 mph SSW14.8 kmh SSW 9.2 mph14.8 kmh 30.61 in1036.6 mb - 0.00 in0.0 mm 0.79 in20.1 mm
06:50 AM 57.6°F14.2°C 56.7°F13.7°C 97% 6.9 mph SE11.1 kmh SE 5.8 mph9.3 kmh 30.62 in1036.9 mb - 0.00 in0.0 mm 0.79 in20.1 mm
07:00 AM 57.7°F14.3°C 56.9°F13.8°C 97% 4.6 mph SE7.4 kmh SE 5.8 mph9.3 kmh 30.63 in1037.3 mb - 0.00 in0.0 mm 0.79 in20.1 mm
07:10 AM 58.3°F14.6°C 57.7°F14.3°C 98% 8.1 mph SW13.0 kmh SW 10.4 mph16.7 kmh 30.64 in1037.6 mb - 0.00 in0.0 mm 0.79 in20.1 mm
07:20 AM 58.5°F14.7°C 58.0°F14.4°C 98% 12.7 mph ESE20.4 kmh ESE 10.4 mph16.7 kmh 30.64 in1037.6 mb - 0.00 in0.0 mm 0.79 in20.1 mm
07:30 AM 58.7°F14.8°C 58.1°F14.5°C 98% 4.6 mph S7.4 kmh S 5.8 mph9.3 kmh 30.65 in1037.9 mb - 0.00 in0.0 mm 0.79 in20.1 mm
07:40 AM 58.8°F14.9°C 58.2°F14.6°C 98% 8.1 mph S13.0 kmh S 8.1 mph13.0 kmh 30.66 in1038.3 mb - 0.00 in0.0 mm 0.79 in20.1 mm
07:50 AM 58.5°F14.7°C 57.9°F14.4°C 98% 8.1 mph SW13.0 kmh SW 8.1 mph13.0 kmh 30.66 in1038.3 mb - 0.00 in0.0 mm 0.79 in20.1 mm
08:00 AM 58.4°F14.7°C 57.8°F14.3°C 98% 3.5 mph ESE5.6 kmh ESE 2.3 mph3.7 kmh 30.64 in1037.6 mb - 0.00 in0.0 mm 0.79 in20.1 mm
08:10 AM 58.3°F14.6°C 57.7°F14.3°C 98% 9.2 mph SE14.8 kmh SE 9.2 mph14.8 kmh 30.65 in1037.9 mb - 0.00 in0.0 mm 0.79 in20.1 mm
08:20 AM 58.1°F14.5°C 57.5°F14.2°C 98% 4.6 mph S7.4 kmh S 5.8 mph9.3 kmh 30.66 in1038.3 mb - 0.00 in0.0 mm 0.79 in20.1 mm
08:30 AM 57.8°F14.3°C 57.0°F13.9°C 97% 3.5 mph ESE5.6 kmh ESE 2.3 mph3.7 kmh 30.64 in1037.6 mb - 0.00 in0.0 mm 0.79 in20.1 mm
08:40 AM 57.7°F14.3°C 56.9°F13.8°C 97% 3.5 mph ESE5.6 kmh ESE 2.3 mph3.7 kmh 30.64 in1037.6 mb - 0.00 in0.0 mm 0.79 in20.1 mm
08:50 AM 57.5°F14.2°C 56.7°F13.7°C 97% 10.4 mph SSW16.7 kmh SSW 10.4 mph16.7 kmh 30.65 in1037.9 mb - 0.00 in0.0 mm 0.79 in20.1 mm
09:00 AM 57.5°F14.2°C 56.7°F13.7°C 97% 15.0 mph SSW24.1 kmh SSW 16.1 mph25.9 kmh 30.65 in1037.9 mb - 0.00 in0.0 mm 0.79 in20.1 mm
09:10 AM 57.4°F14.1°C 56.6°F13.7°C 97% 3.5 mph SE5.6 kmh SE 2.3 mph3.7 kmh 30.64 in1037.6 mb - 0.00 in0.0 mm 0.79 in20.1 mm
09:20 AM 57.5°F14.2°C 56.7°F13.7°C 97% 3.5 mph SE5.6 kmh SE 2.3 mph3.7 kmh 30.64 in1037.6 mb - 0.00 in0.0 mm 0.79 in20.1 mm
09:30 AM 57.1°F13.9°C 56.3°F13.5°C 97% 4.6 mph S7.4 kmh S 5.8 mph9.3 kmh 30.66 in1038.3 mb - 0.00 in0.0 mm 0.79 in20.1 mm
09:40 AM 56.8°F13.8°C 56.0°F13.3°C 97% 4.6 mph SSE7.4 kmh SSE 10.4 mph16.7 kmh 30.67 in1038.6 mb - 0.00 in0.0 mm 0.79 in20.1 mm
09:50 AM 54.2°F12.3°C 53.3°F11.8°C 97% 8.1 mph W13.0 kmh W 8.1 mph13.0 kmh 30.70 in1039.6 mb - 0.00 in0.0 mm 0.79 in20.1 mm
10:00 AM 49.0°F9.4°C 48.2°F9.0°C 97% 5.8 mph WSW9.3 kmh WSW 3.5 mph5.6 kmh 30.71 in1040.0 mb - 0.00 in0.0 mm 0.79 in20.1 mm
10:10 AM 46.7°F8.2°C 45.9°F7.7°C 97% 5.8 mph WSW9.3 kmh WSW 11.5 mph18.5 kmh 30.73 in1040.6 mb - 0.00 in0.0 mm 0.79 in20.1 mm
10:20 AM 44.8°F7.1°C 43.7°F6.5°C 96% 8.1 mph WSW13.0 kmh WSW 9.2 mph14.8 kmh 30.73 in1040.6 mb - 0.00 in0.0 mm 0.79 in20.1 mm
10:30 AM 44.1°F6.7°C 43.1°F6.2°C 96% 8.1 mph WSW13.0 kmh WSW 6.9 mph11.1 kmh 30.71 in1040.0 mb - 0.00 in0.0 mm 0.79 in20.1 mm
10:40 AM 43.8°F6.6°C 42.8°F6.0°C 96% 10.4 mph WSW16.7 kmh WSW 11.5 mph18.5 kmh 30.67 in1038.6 mb - 0.00 in0.0 mm 0.79 in20.1 mm
10:50 AM 43.0°F6.1°C 41.9°F5.5°C 96% 15.0 mph W24.1 kmh W 13.8 mph22.2 kmh 30.65 in1037.9 mb - 0.00 in0.0 mm 0.79 in20.1 mm
11:00 AM 42.2°F5.7°C 41.1°F5.1°C 96% 5.8 mph W9.3 kmh W 5.8 mph9.3 kmh 30.53 in1033.9 mb - 0.00 in0.0 mm 0.79 in20.1 mm
11:10 AM 42.6°F5.9°C 41.6°F5.3°C 96% 5.8 mph WSW9.3 kmh WSW 5.8 mph9.3 kmh 30.15 in1021.0 mb - 0.00 in0.0 mm 0.79 in20.1 mm
11:20 AM 41.9°F5.5°C 40.8°F4.9°C 96% 6.9 mph WNW11.1 kmh WNW 10.4 mph16.7 kmh 30.28 in1025.4 mb - 0.00 in0.0 mm 0.79 in20.1 mm
11:30 AM 40.3°F4.6°C 39.3°F4.1°C 96% 8.1 mph WNW13.0 kmh WNW 8.1 mph13.0 kmh 30.35 in1027.8 mb - 0.00 in0.0 mm 0.79 in20.1 mm
11:40 AM 39.1°F3.9°C 38.0°F3.3°C 96% 3.5 mph W5.6 kmh W 2.3 mph3.7 kmh 30.32 in1026.8 mb - 0.00 in0.0 mm 0.79 in20.1 mm
11:50 AM 39.1°F3.9°C 37.6°F3.1°C 94% 10.4 mph WSW16.7 kmh WSW 8.1 mph13.0 kmh 30.21 in1023.0 mb - 0.00 in0.0 mm 0.79 in20.1 mm
12:00 PM 38.1°F3.4°C 36.8°F2.7°C 95% 6.9 mph W11.1 kmh W 6.9 mph11.1 kmh 30.29 in1025.7 mb - 0.00 in0.0 mm 0.79 in20.1 mm
12:10 PM 36.3°F2.4°C 34.7°F1.5°C 94% 2.3 mph WSW3.7 kmh WSW 3.5 mph5.6 kmh 30.34 in1027.4 mb - 0.00 in0.0 mm 0.79 in20.1 mm
12:20 PM 35.4°F1.9°C 32.5°F0.3°C 89% 10.4 mph NW16.7 kmh NW 9.2 mph14.8 kmh 30.28 in1025.4 mb - 0.00 in0.0 mm 0.79 in20.1 mm
12:30 PM 33.8°F1.0°C 29.5°F-1.4°C 84% 6.9 mph WSW11.1 kmh WSW 6.9 mph11.1 kmh 30.15 in1021.0 mb - 0.00 in0.0 mm 0.79 in20.1 mm
12:40 PM 33.6°F0.9°C 29.0°F-1.7°C 83% 6.9 mph SW11.1 kmh SW 5.8 mph9.3 kmh 30.20 in1022.7 mb - 0.00 in0.0 mm 0.79 in20.1 mm
12:50 PM 32.7°F0.4°C 28.4°F-2.0°C 84% 5.8 mph WSW9.3 kmh WSW 5.8 mph9.3 kmh 30.20 in1022.7 mb - 0.00 in0.0 mm 0.79 in20.1 mm
01:00 PM 33.0°F0.6°C 28.7°F-1.8°C 84% 4.6 mph WSW7.4 kmh WSW 5.8 mph9.3 kmh 30.22 in1023.4 mb - 0.00 in0.0 mm 0.79 in20.1 mm
01:10 PM 32.7°F0.4°C 27.5°F-2.5°C 81% 10.4 mph W16.7 kmh W 9.2 mph14.8 kmh 30.22 in1023.4 mb - 0.00 in0.0 mm 0.79 in20.1 mm
01:20 PM 32.9°F0.5°C 27.7°F-2.4°C 81% 2.3 mph WSW3.7 kmh WSW 2.3 mph3.7 kmh 30.23 in1023.7 mb - 0.00 in0.0 mm 0.79 in20.1 mm
01:30 PM 32.7°F0.4°C 27.2°F-2.7°C 80% 13.8 mph NNW22.2 kmh NNW 12.7 mph20.4 kmh 30.23 in1023.7 mb - 0.00 in0.0 mm 0.79 in20.1 mm
01:40 PM 32.9°F0.5°C 26.8°F-2.9°C 78% 8.1 mph W13.0 kmh W 6.9 mph11.1 kmh 30.24 in1024.0 mb - 0.00 in0.0 mm 0.79 in20.1 mm
01:50 PM 33.1°F0.6°C 26.7°F-2.9°C 77% 9.2 mph W14.8 kmh W 8.1 mph13.0 kmh 30.25 in1024.4 mb - 0.00 in0.0 mm 0.79 in20.1 mm
02:00 PM 33.7°F0.9°C 26.6°F-3.0°C 75% 9.2 mph SW14.8 kmh SW 17.3 mph27.8 kmh 30.26 in1024.7 mb - 0.00 in0.0 mm 0.79 in20.1 mm
02:10 PM 33.8°F1.0°C 26.4°F-3.1°C 74% 4.6 mph N7.4 kmh N 5.8 mph9.3 kmh 30.27 in1025.1 mb - 0.00 in0.0 mm 0.79 in20.1 mm
02:20 PM 34.1°F1.2°C 28.0°F-2.2°C 78% 2.3 mph SW3.7 kmh SW 3.5 mph5.6 kmh 30.42 in1030.1 mb - 0.00 in0.0 mm 0.79 in20.1 mm
02:30 PM 33.6°F0.9°C 27.8°F-2.3°C 79% 5.8 mph W9.3 kmh W 3.5 mph5.6 kmh 30.49 in1032.5 mb - 0.00 in0.0 mm 0.79 in20.1 mm
02:40 PM 33.2°F0.7°C 27.7°F-2.4°C 80% 6.9 mph WSW11.1 kmh WSW 5.8 mph9.3 kmh 30.53 in1033.9 mb - 0.00 in0.0 mm 0.79 in20.1 mm
02:50 PM 33.3°F0.7°C 28.4°F-2.0°C 82% 16.1 mph WSW25.9 kmh WSW 16.1 mph25.9 kmh 30.55 in1034.5 mb - 0.00 in0.0 mm 0.79 in20.1 mm
03:00 PM 32.9°F0.5°C 28.3°F-2.1°C 83% 3.5 mph NW5.6 kmh NW 3.5 mph5.6 kmh 30.57 in1035.2 mb - 0.00 in0.0 mm 0.79 in20.1 mm
03:10 PM 33.0°F0.6°C 28.4°F-2.0°C 83% 3.5 mph WSW5.6 kmh WSW 2.3 mph3.7 kmh 30.59 in1035.9 mb - 0.00 in0.0 mm 0.79 in20.1 mm
03:20 PM 32.9°F0.5°C 28.3°F-2.1°C 83% 2.3 mph NNE3.7 kmh NNE 2.3 mph3.7 kmh 30.53 in1033.9 mb - 0.00 in0.0 mm 0.79 in20.1 mm
03:30 PM 32.7°F0.4°C 27.5°F-2.5°C 81% 2.3 mph SW3.7 kmh SW 1.2 mph1.9 kmh 30.57 in1035.2 mb - 0.00 in0.0 mm 0.79 in20.1 mm
03:40 PM 31.9°F-0.1°C 27.3°F-2.6°C 83% 8.1 mph SW13.0 kmh SW 8.1 mph13.0 kmh 30.59 in1035.9 mb - 0.00 in0.0 mm 0.79 in20.1 mm
03:50 PM 31.5°F-0.3°C 27.2°F-2.7°C 84% 3.5 mph WSW5.6 kmh WSW 2.3 mph3.7 kmh 30.62 in1036.9 mb - 0.00 in0.0 mm 0.79 in20.1 mm
04:00 PM 31.1°F-0.5°C 26.5°F-3.1°C 83% 6.9 mph WSW11.1 kmh WSW 5.8 mph9.3 kmh 30.64 in1037.6 mb - 0.00 in0.0 mm 0.79 in20.1 mm
04:10 PM 30.8°F-0.7°C 25.9°F-3.4°C 82% 6.9 mph NNW11.1 kmh NNW 5.8 mph9.3 kmh 30.66 in1038.3 mb - 0.00 in0.0 mm 0.79 in20.1 mm
04:20 PM 30.4°F-0.9°C 25.9°F-3.4°C 83% 4.6 mph W7.4 kmh W 3.5 mph5.6 kmh 30.69 in1039.3 mb - 0.00 in0.0 mm 0.79 in20.1 mm
04:30 PM 29.9°F-1.2°C 25.9°F-3.4°C 85% 3.5 mph W5.6 kmh W 5.8 mph9.3 kmh 30.71 in1040.0 mb - 0.00 in0.0 mm 0.79 in20.1 mm
04:40 PM 29.6°F-1.3°C 26.2°F-3.2°C 87% 10.4 mph SW16.7 kmh SW 9.2 mph14.8 kmh 30.74 in1041.0 mb - 0.00 in0.0 mm 0.79 in20.1 mm
04:50 PM 29.1°F-1.6°C 26.2°F-3.2°C 89% 5.8 mph WSW9.3 kmh WSW 2.3 mph3.7 kmh 30.77 in1042.0 mb - 0.00 in0.0 mm 0.79 in20.1 mm
05:00 PM 28.9°F-1.7°C 26.0°F-3.3°C 89% 8.1 mph SW13.0 kmh SW 6.9 mph11.1 kmh 30.80 in1043.0 mb - 0.00 in0.0 mm 0.79 in20.1 mm
05:10 PM 28.2°F-2.1°C 25.4°F-3.7°C 89% 3.5 mph W5.6 kmh W 1.2 mph1.9 kmh 30.83 in1044.0 mb - 0.00 in0.0 mm 0.79 in20.1 mm
05:20 PM 27.8°F-2.3°C 25.2°F-3.8°C 90% 5.8 mph W9.3 kmh W 5.8 mph9.3 kmh 30.85 in1044.7 mb - 0.00 in0.0 mm 0.79 in20.1 mm
05:30 PM 27.4°F-2.6°C 24.9°F-3.9°C 90% 1.2 mph E1.9 kmh E -- 30.88 in1045.7 mb - 0.00 in0.0 mm 0.79 in20.1 mm
05:40 PM 27.1°F-2.7°C 24.6°F-4.1°C 90% 6.9 mph SW11.1 kmh SW 5.8 mph9.3 kmh 30.90 in1046.4 mb - 0.00 in0.0 mm 0.79 in20.1 mm
05:50 PM 26.9°F-2.8°C 24.6°F-4.1°C 91% 8.1 mph SW13.0 kmh SW 10.4 mph16.7 kmh 30.92 in1047.1 mb - 0.00 in0.0 mm 0.79 in20.1 mm
06:00 PM 26.6°F-3.0°C 25.1°F-3.8°C 94% 2.3 mph WNW3.7 kmh WNW 8.1 mph13.0 kmh 30.94 in1047.7 mb - 0.00 in0.0 mm 0.79 in20.1 mm
06:10 PM 26.1°F-3.3°C 23.8°F-4.6°C 91% 11.5 mph NW18.5 kmh NW 8.1 mph13.0 kmh 30.97 in1048.8 mb - 0.00 in0.0 mm 0.79 in20.1 mm
06:20 PM 25.7°F-3.5°C 23.4°F-4.8°C 91% 2.3 mph NNW3.7 kmh NNW 2.3 mph3.7 kmh 31.00 in1049.8 mb - 0.00 in0.0 mm 0.79 in20.1 mm
06:30 PM 25.4°F-3.7°C 23.4°F-4.8°C 92% 2.3 mph NW3.7 kmh NW 3.5 mph5.6 kmh 31.01 in1050.1 mb - 0.00 in0.0 mm 0.79 in20.1 mm
06:40 PM 24.9°F-3.9°C 23.2°F-4.9°C 93% 3.5 mph N5.6 kmh N 2.3 mph3.7 kmh 31.03 in1050.8 mb - 0.00 in0.0 mm 0.79 in20.1 mm
06:50 PM 24.6°F-4.1°C 22.9°F-5.1°C 93% 8.1 mph SSW13.0 kmh SSW 8.1 mph13.0 kmh 31.05 in1051.5 mb - 0.00 in0.0 mm 0.79 in20.1 mm
07:00 PM 24.2°F-4.3°C 22.4°F-5.3°C 93% 5.8 mph WSW9.3 kmh WSW 5.8 mph9.3 kmh 31.07 in1052.2 mb - 0.00 in0.0 mm 0.79 in20.1 mm
07:10 PM 23.7°F-4.6°C 22.0°F-5.6°C 93% 9.2 mph WSW14.8 kmh WSW 8.1 mph13.0 kmh 31.08 in1052.5 mb - 0.00 in0.0 mm 0.79 in20.1 mm
07:20 PM 23.4°F-4.8°C 21.4°F-5.9°C 92% 2.3 mph N3.7 kmh N 5.8 mph9.3 kmh 31.09 in1052.8 mb - 0.00 in0.0 mm 0.79 in20.1 mm
07:30 PM 23.0°F-5.0°C 21.3°F-5.9°C 93% 2.3 mph NW3.7 kmh NW 2.3 mph3.7 kmh 31.11 in1053.5 mb - 0.00 in0.0 mm 0.79 in20.1 mm
07:40 PM 22.7°F-5.2°C 21.0°F-6.1°C 93% 2.3 mph NW3.7 kmh NW 2.3 mph3.7 kmh 31.13 in1054.2 mb - 0.00 in0.0 mm 0.79 in20.1 mm
07:50 PM 22.4°F-5.3°C 20.7°F-6.3°C 93% 5.8 mph NW9.3 kmh NW 8.1 mph13.0 kmh 31.14 in1054.5 mb - 0.00 in0.0 mm 0.79 in20.1 mm
08:00 PM 22.0°F-5.6°C 20.3°F-6.5°C 93% 2.3 mph W3.7 kmh W 2.3 mph3.7 kmh 31.16 in1055.2 mb - 0.00 in0.0 mm 0.79 in20.1 mm
08:10 PM 21.7°F-5.7°C 20.0°F-6.7°C 93% 10.4 mph WSW16.7 kmh WSW 8.1 mph13.0 kmh 31.17 in1055.5 mb - 0.00 in0.0 mm 0.79 in20.1 mm
08:20 PM 21.2°F-6.0°C 19.5°F-6.9°C 93% 4.6 mph W7.4 kmh W 5.8 mph9.3 kmh 31.20 in1056.6 mb - 0.00 in0.0 mm 0.79 in20.1 mm
08:30 PM 20.7°F-6.3°C 19.0°F-7.2°C 93% 2.3 mph E3.7 kmh E 2.3 mph3.7 kmh 31.22 in1057.2 mb - 0.00 in0.0 mm 0.79 in20.1 mm
08:40 PM 20.4°F-6.4°C 18.7°F-7.4°C 93% 4.6 mph W7.4 kmh W 5.8 mph9.3 kmh 31.22 in1057.2 mb - 0.00 in0.0 mm 0.79 in20.1 mm
08:50 PM 20.2°F-6.6°C 18.5°F-7.5°C 93% 3.5 mph SE5.6 kmh SE 2.3 mph3.7 kmh 31.23 in1057.6 mb - 0.00 in0.0 mm 0.79 in20.1 mm
09:00 PM 19.9°F-6.7°C 18.2°F-7.7°C 93% 1.2 mph W1.9 kmh W 3.5 mph5.6 kmh 31.24 in1057.9 mb - 0.00 in0.0 mm 0.79 in20.1 mm
09:10 PM 19.7°F-6.8°C 18.0°F-7.8°C 93% 3.5 mph WNW5.6 kmh WNW 2.3 mph3.7 kmh 31.25 in1058.2 mb - 0.00 in0.0 mm 0.79 in20.1 mm
09:20 PM 19.4°F-7.0°C 17.7°F-7.9°C 93% 1.2 mph ESE1.9 kmh ESE 1.2 mph1.9 kmh 31.26 in1058.6 mb - 0.00 in0.0 mm 0.79 in20.1 mm
09:30 PM 19.3°F-7.1°C 17.6°F-8.0°C 93% 1.2 mph WNW1.9 kmh WNW 1.2 mph1.9 kmh 31.27 in1058.9 mb - 0.00 in0.0 mm 0.79 in20.1 mm
09:40 PM 19.1°F-7.2°C 17.4°F-8.1°C 93% 2.3 mph WSW3.7 kmh WSW 5.8 mph9.3 kmh 31.28 in1059.3 mb - 0.00 in0.0 mm 0.79 in20.1 mm
09:50 PM 18.9°F-7.3°C 17.2°F-8.2°C 93% 1.2 mph SW1.9 kmh SW 6.9 mph11.1 kmh 31.29 in1059.6 mb - 0.00 in0.0 mm 0.79 in20.1 mm
10:00 PM 18.9°F-7.3°C 17.2°F-8.2°C 93% 6.9 mph E11.1 kmh E 3.5 mph5.6 kmh 31.29 in1059.6 mb - 0.00 in0.0 mm 0.79 in20.1 mm
10:10 PM 18.9°F-7.3°C 17.2°F-8.2°C 93% 4.6 mph W7.4 kmh W 5.8 mph9.3 kmh 31.30 in1059.9 mb - 0.00 in0.0 mm 0.79 in20.1 mm
10:20 PM 18.8°F-7.3°C 17.1°F-8.3°C 93% 1.2 mph SW1.9 kmh SW 1.2 mph1.9 kmh 31.31 in1060.3 mb - 0.00 in0.0 mm 0.79 in20.1 mm
10:30 PM 18.7°F-7.4°C 17.0°F-8.3°C 93% 2.3 mph NW3.7 kmh NW 1.2 mph1.9 kmh 31.32 in1060.6 mb - 0.00 in0.0 mm 0.79 in20.1 mm
10:40 PM 18.6°F-7.4°C 16.9°F-8.4°C 93% 5.8 mph W9.3 kmh W 2.3 mph3.7 kmh 31.33 in1061.0 mb - 0.00 in0.0 mm 0.79 in20.1 mm
10:50 PM 18.3°F-7.6°C 16.6°F-8.6°C 93% 3.5 mph W5.6 kmh W 2.3 mph3.7 kmh 31.32 in1060.6 mb - 0.00 in0.0 mm 0.79 in20.1 mm
11:00 PM 18.1°F-7.7°C 16.4°F-8.7°C 93% 3.5 mph W5.6 kmh W 3.5 mph5.6 kmh 31.33 in1061.0 mb - 0.00 in0.0 mm 0.79 in20.1 mm
11:10 PM 17.9°F-7.8°C 16.2°F-8.8°C 93% Calm Calm -- 31.34 in1061.3 mb - 0.00 in0.0 mm 0.79 in20.1 mm
11:20 PM 17.9°F-7.8°C 16.2°F-8.8°C 93% 3.5 mph SW5.6 kmh SW 2.3 mph3.7 kmh 31.34 in1061.3 mb - 0.00 in0.0 mm 0.79 in20.1 mm
11:30 PM 17.8°F-7.9°C 16.1°F-8.8°C 93% Calm Calm -- 31.35 in1061.6 mb - 0.00 in0.0 mm 0.79 in20.1 mm
11:40 PM 17.7°F-7.9°C 16.0°F-8.9°C 93% 4.6 mph N7.4 kmh N 5.8 mph9.3 kmh 31.35 in1061.6 mb - 0.00 in0.0 mm 0.79 in20.1 mm
11:50 PM 17.7°F-7.9°C 16.0°F-8.9°C 93% 3.5 mph WSW5.6 kmh WSW 5.8 mph9.3 kmh 31.35 in1061.6 mb - 0.00 in0.0 mm 0.79 in20.1 mm